Time;durP1;ratioP1;P1;durP2;ratioP2;P2;SDS_P1;SDS_P2;PMS_P1;PMS_P2;Temp;Humidity;BMP_temperature;BMP_pressure;BME280_temperature;BME280_humidity;BME280_pressure;Samples;Min_cycle;Max_cycle;Signal;HPM_P1;HPM_P2
2023/04/21 00:01:11;;;;;;;26.73;16.67;;;;;;;;;;5074321;28;20036;-67
2023/04/21 00:03:37;;;;;;;34.88;21.17;;;;;;;;;;5068217;28;20037;-67
2023/04/21 00:06:05;;;;;;;39.63;23.17;;;;;;;;;;5065068;28;20032;-67
2023/04/21 00:08:30;;;;;;;26.42;18.70;;;;;;;;;;5068648;28;20036;-67
2023/04/21 00:10:56;;;;;;;41.72;23.13;;;;;;;;;;5050525;28;20032;-67
2023/04/21 00:13:22;;;;;;;40.63;25.05;;;;;;;;;;5067358;28;20032;-67
2023/04/21 00:15:49;;;;;;;38.67;22.15;;;;;;;;;;5047797;28;20116;-67
2023/04/21 00:18:15;;;;;;;18.95;13.80;;;;;;;;;;5068308;28;20107;-67
2023/04/21 00:20:41;;;;;;;43.13;23.13;;;;;;;;;;5070152;28;20249;-67
2023/04/21 00:23:09;;;;;;;37.90;22.17;;;;;;;;;;5065698;28;20040;-67
2023/04/21 00:25:35;;;;;;;38.45;23.13;;;;;;;;;;5063987;28;20029;-67
2023/04/21 00:28:01;;;;;;;18.90;12.30;;;;;;;;;;5063012;28;20035;-67
2023/04/21 00:30:26;;;;;;;34.08;20.10;;;;;;;;;;5051383;28;20063;-67
2023/04/21 00:32:52;;;;;;;28.52;18.48;;;;;;;;;;5063512;28;20040;-67
2023/04/21 00:35:17;;;;;;;31.77;20.75;;;;;;;;;;5051112;28;20118;-67
2023/04/21 00:37:43;;;;;;;33.33;20.58;;;;;;;;;;5069585;28;20033;-67
2023/04/21 00:40:10;;;;;;;22.08;13.55;;;;;;;;;;5050132;28;20047;-67
2023/04/21 00:42:38;;;;;;;16.02;11.38;;;;;;;;;;5051655;28;20669;-67
2023/04/21 00:45:04;;;;;;;25.20;16.17;;;;;;;;;;5050711;28;20047;-67
2023/04/21 00:47:30;;;;;;;32.10;19.92;;;;;;;;;;5067960;28;20036;-67
2023/04/21 00:49:57;;;;;;;33.22;20.42;;;;;;;;;;5069199;28;20045;-67
2023/04/21 00:52:23;;;;;;;30.48;20.00;;;;;;;;;;5046065;28;20040;-67
2023/04/21 00:54:49;;;;;;;31.50;21.02;;;;;;;;;;5069203;28;20029;-67
2023/04/21 00:57:15;;;;;;;19.45;14.93;;;;;;;;;;5047464;28;20052;-67
2023/04/21 00:59:40;;;;;;;18.08;13.05;;;;;;;;;;5070665;28;20032;-67
2023/04/21 01:02:06;;;;;;;29.85;13.30;;;;;;;;;;5047254;28;20499;-67
2023/04/21 01:04:35;;;;;;;16.30;12.27;;;;;;;;;;5050512;28;20127;-67
2023/04/21 01:07:03;;;;;;;20.27;13.13;;;;;;;;;;5067741;28;20496;-67
2023/04/21 01:09:29;;;;;;;14.80;11.32;;;;;;;;;;5052228;28;20035;-67
2023/04/21 01:12:02;;;;;;;18.30;14.32;;;;;;;;;;5073000;28;20041;-67
2023/04/21 01:14:27;;;;;;;25.08;17.35;;;;;;;;;;5073903;28;20037;-67
2023/04/21 01:16:53;;;;;;;19.15;13.00;;;;;;;;;;5052603;28;21118;-67
2023/04/21 01:19:19;;;;;;;27.08;17.13;;;;;;;;;;5067036;28;20028;-67
2023/04/21 01:21:45;;;;;;;27.58;19.08;;;;;;;;;;5054903;28;20476;-66
2023/04/21 01:24:11;;;;;;;30.23;18.27;;;;;;;;;;5077591;28;20118;-67
2023/04/21 01:26:37;;;;;;;26.00;17.40;;;;;;;;;;5053318;28;20127;-67
2023/04/21 01:29:03;;;;;;;26.35;18.58;;;;;;;;;;5049669;28;20108;-66
2023/04/21 01:31:31;;;;;;;27.17;17.48;;;;;;;;;;5056278;28;20043;-66
2023/04/21 01:33:56;;;;;;;25.08;16.45;;;;;;;;;;5060408;28;20020;-66
2023/04/21 01:36:22;;;;;;;32.47;19.65;;;;;;;;;;5056519;28;20435;-68
2023/04/21 01:38:50;;;;;;;32.95;19.67;;;;;;;;;;5054432;28;20447;-68
2023/04/21 01:41:17;;;;;;;34.22;21.42;;;;;;;;;;5072379;28;20489;-68
2023/04/21 01:43:42;;;;;;;31.33;19.58;;;;;;;;;;5074219;28;20500;-67
2023/04/21 01:46:08;;;;;;;31.92;19.30;;;;;;;;;;5071030;28;20036;-68
2023/04/21 01:48:36;;;;;;;24.77;15.10;;;;;;;;;;5056657;28;20039;-68
2023/04/21 01:51:04;;;;;;;31.50;19.83;;;;;;;;;;5076154;28;20523;-67
2023/04/21 01:53:31;;;;;;;31.27;19.88;;;;;;;;;;5055558;28;20091;-67
2023/04/21 01:55:57;;;;;;;30.63;20.30;;;;;;;;;;5051264;28;20476;-67
2023/04/21 01:58:23;;;;;;;31.33;19.42;;;;;;;;;;5072122;28;20107;-67
2023/04/21 02:00:49;;;;;;;30.15;19.17;;;;;;;;;;5058711;28;20080;-67
2023/04/21 02:03:15;;;;;;;35.05;21.75;;;;;;;;;;5054407;28;20419;-67
2023/04/21 02:05:40;;;;;;;32.30;19.88;;;;;;;;;;5072303;28;20637;-67
2023/04/21 02:08:06;;;;;;;32.97;20.75;;;;;;;;;;5076161;28;20116;-67
2023/04/21 02:10:32;;;;;;;33.85;20.65;;;;;;;;;;5057007;28;20040;-67
2023/04/21 02:12:58;;;;;;;37.38;21.10;;;;;;;;;;5069970;28;20033;-67
2023/04/21 02:15:23;;;;;;;33.83;20.02;;;;;;;;;;5072356;28;20048;-67
2023/04/21 02:17:50;;;;;;;35.17;21.55;;;;;;;;;;5054607;28;20036;-67
2023/04/21 02:20:15;;;;;;;35.05;21.77;;;;;;;;;;5072147;28;20300;-67
2023/04/21 02:22:41;;;;;;;37.47;22.05;;;;;;;;;;5047943;28;20040;-67
2023/04/21 02:25:07;;;;;;;35.28;20.83;;;;;;;;;;5068447;28;20391;-67
2023/04/21 02:27:33;;;;;;;33.13;20.35;;;;;;;;;;5054046;28;20036;-67
2023/04/21 02:29:58;;;;;;;38.80;21.92;;;;;;;;;;5047751;28;20476;-67
2023/04/21 02:32:24;;;;;;;43.92;22.92;;;;;;;;;;5050599;28;20040;-67
2023/04/21 02:34:49;;;;;;;53.20;26.10;;;;;;;;;;5052966;28;20650;-68
2023/04/21 02:37:15;;;;;;;47.55;23.67;;;;;;;;;;5043359;28;20069;-67
2023/04/21 02:39:42;;;;;;;42.03;22.40;;;;;;;;;;5051322;28;20036;-67
2023/04/21 02:42:08;;;;;;;47.45;24.27;;;;;;;;;;5068558;28;20568;-68
2023/04/21 02:44:36;;;;;;;42.53;22.25;;;;;;;;;;5066867;28;20136;-68
2023/04/21 02:47:02;;;;;;;50.05;24.63;;;;;;;;;;5048291;28;20032;-67
2023/04/21 02:49:28;;;;;;;56.95;25.80;;;;;;;;;;5050048;28;20036;-67
2023/04/21 02:51:57;;;;;;;57.28;25.90;;;;;;;;;;5071296;28;20028;-67
2023/04/21 02:54:22;;;;;;;49.33;21.85;;;;;;;;;;5069515;28;20044;-67
2023/04/21 02:56:48;;;;;;;43.70;22.15;;;;;;;;;;5043918;28;20037;-68
2023/04/21 02:59:16;;;;;;;39.85;22.85;;;;;;;;;;5069069;28;20136;-66
2023/04/21 03:01:42;;;;;;;43.97;23.52;;;;;;;;;;5056936;28;20067;-67
2023/04/21 03:04:08;;;;;;;43.97;21.65;;;;;;;;;;5068244;28;20052;-67
2023/04/21 03:06:33;;;;;;;37.42;20.50;;;;;;;;;;5062419;28;20040;-67
2023/04/21 03:08:59;;;;;;;334.00;29.33;;;;;;;;;;5052384;28;20036;-67
2023/04/21 03:11:25;;;;;;;211.23;25.63;;;;;;;;;;5046265;28;20079;-67
2023/04/21 03:13:52;;;;;;;299.85;29.30;;;;;;;;;;5044108;28;20035;-67
2023/04/21 03:16:18;;;;;;;39.75;22.42;;;;;;;;;;5042097;28;20041;-67
2023/04/21 03:18:44;;;;;;;42.70;21.00;;;;;;;;;;5051093;28;20044;-67
2023/04/21 03:21:11;;;;;;;39.95;20.95;;;;;;;;;;5050465;28;20107;-67
2023/04/21 03:23:36;;;;;;;39.13;21.30;;;;;;;;;;5050334;28;20104;-68
2023/04/21 03:26:06;;;;;;;38.95;20.63;;;;;;;;;;5070053;28;20032;-68
2023/04/21 03:28:32;;;;;;;43.65;22.95;;;;;;;;;;5051930;28;20519;-68
2023/04/21 03:30:58;;;;;;;38.65;20.88;;;;;;;;;;5050518;28;20062;-67
2023/04/21 03:33:25;;;;;;;50.38;25.95;;;;;;;;;;5048550;28;20115;-67
2023/04/21 03:35:51;;;;;;;46.47;23.13;;;;;;;;;;5050757;28;20107;-66
2023/04/21 03:38:16;;;;;;;39.53;22.05;;;;;;;;;;5049062;28;20043;-66
2023/04/21 03:40:42;;;;;;;38.95;21.30;;;;;;;;;;5052160;28;20036;-66
2023/04/21 03:43:08;;;;;;;38.97;21.10;;;;;;;;;;5053264;28;20044;-66
2023/04/21 03:45:34;;;;;;;42.60;23.50;;;;;;;;;;5051750;28;20036;-67
2023/04/21 03:48:00;;;;;;;42.50;24.70;;;;;;;;;;5046053;28;20032;-68
2023/04/21 03:50:25;;;;;;;41.03;21.73;;;;;;;;;;5049306;28;20516;-68
2023/04/21 03:52:51;;;;;;;29.13;15.32;;;;;;;;;;5067418;28;20631;-67
2023/04/21 03:55:16;;;;;;;32.83;18.67;;;;;;;;;;5069163;28;20063;-67
2023/04/21 03:57:42;;;;;;;38.28;21.27;;;;;;;;;;5064687;28;20415;-67
2023/04/21 04:00:09;;;;;;;58.45;23.13;;;;;;;;;;5068965;28;20484;-68
2023/04/21 04:02:38;;;;;;;39.38;21.20;;;;;;;;;;5066612;28;20032;-67
2023/04/21 04:05:04;;;;;;;55.17;21.15;;;;;;;;;;5068280;28;20507;-67
2023/04/21 04:07:31;;;;;;;64.20;23.95;;;;;;;;;;5062819;28;20040;-67
2023/04/21 04:09:56;;;;;;;37.80;20.42;;;;;;;;;;5066705;28;20063;-66
2023/04/21 04:12:22;;;;;;;37.42;20.30;;;;;;;;;;5063899;28;20464;-66
2023/04/21 04:14:48;;;;;;;114.93;21.10;;;;;;;;;;5062310;28;20036;-67
2023/04/21 04:17:13;;;;;;;39.90;20.08;;;;;;;;;;5030344;28;20040;-67
2023/04/21 04:19:39;;;;;;;110.18;18.88;;;;;;;;;;5067582;28;20537;-65
2023/04/21 04:22:05;;;;;;;95.63;22.83;;;;;;;;;;5045311;28;20043;-66
2023/04/21 04:24:32;;;;;;;49.08;15.55;;;;;;;;;;5064705;28;20036;-65
2023/04/21 04:26:58;;;;;;;75.20;21.67;;;;;;;;;;5067717;28;20472;-66
2023/04/21 04:29:25;;;;;;;191.80;25.10;;;;;;;;;;5034531;28;20109;-66
2023/04/21 04:31:51;;;;;;;545.40;52.05;;;;;;;;;;5067655;28;20039;-66
2023/04/21 04:34:17;;;;;;;213.50;37.42;;;;;;;;;;5063658;28;20055;-66
2023/04/21 04:36:44;;;;;;;189.70;40.65;;;;;;;;;;5061008;28;20041;-67
2023/04/21 04:39:09;;;;;;;360.77;34.08;;;;;;;;;;5062832;28;20139;-66
2023/04/21 04:41:36;;;;;;;360.50;34.95;;;;;;;;;;5067026;28;20547;-66
2023/04/21 04:44:04;;;;;;;170.52;28.88;;;;;;;;;;5071049;28;20039;-66
2023/04/21 04:46:30;;;;;;;494.95;188.65;;;;;;;;;;5061508;28;20047;-66
2023/04/21 04:48:55;;;;;;;329.23;29.33;;;;;;;;;;5065130;28;20627;-66
2023/04/21 04:51:22;;;;;;;477.20;30.60;;;;;;;;;;5064918;28;20103;-66
2023/04/21 04:53:48;;;;;;;420.08;30.80;;;;;;;;;;5067857;28;20024;-66
2023/04/21 04:56:14;;;;;;;392.40;28.40;;;;;;;;;;5062465;28;20038;-66
2023/04/21 04:58:39;;;;;;;500.33;31.98;;;;;;;;;;5063821;28;20032;-65
2023/04/21 05:01:15;;;;;;;442.42;29.33;;;;;;;;;;5066304;28;20502;-66
2023/04/21 05:03:41;;;;;;;575.70;38.28;;;;;;;;;;5065072;28;20542;-66
2023/04/21 05:06:08;;;;;;;646.22;35.45;;;;;;;;;;5048785;28;20665;-66
2023/04/21 05:08:33;;;;;;;515.78;52.15;;;;;;;;;;5064442;28;20824;-66
2023/04/21 05:10:59;;;;;;;381.55;34.97;;;;;;;;;;5064972;28;20028;-66
2023/04/21 05:13:25;;;;;;;363.83;27.27;;;;;;;;;;5065548;28;20051;-66
2023/04/21 05:15:56;;;;;;;419.50;28.75;;;;;;;;;;5065676;28;20518;-67
2023/04/21 05:18:22;;;;;;;195.00;24.85;;;;;;;;;;5064822;28;20056;-67
2023/04/21 05:20:47;;;;;;;76.50;20.48;;;;;;;;;;5063270;28;20475;-67
2023/04/21 05:23:13;;;;;;;169.32;23.15;;;;;;;;;;5065184;28;20605;-67
2023/04/21 05:25:39;;;;;;;71.35;19.80;;;;;;;;;;5062917;28;20040;-67
2023/04/21 05:28:04;;;;;;;63.63;19.98;;;;;;;;;;5063351;28;20041;-66
2023/04/21 05:30:30;;;;;;;34.70;17.73;;;;;;;;;;5069110;28;20119;-66
2023/04/21 05:32:55;;;;;;;38.67;18.67;;;;;;;;;;5065004;28;20032;-66
2023/04/21 05:35:21;;;;;;;56.70;20.05;;;;;;;;;;5067924;28;20028;-66
2023/04/21 05:37:46;;;;;;;108.00;23.38;;;;;;;;;;5064039;28;20043;-66
2023/04/21 05:40:12;;;;;;;226.98;26.85;;;;;;;;;;5061831;28;20159;-66
2023/04/21 05:42:37;;;;;;;259.08;23.52;;;;;;;;;;5065354;28;20041;-66
2023/04/21 05:45:03;;;;;;;103.72;20.63;;;;;;;;;;5067210;28;20104;-66
2023/04/21 05:47:29;;;;;;;167.88;30.63;;;;;;;;;;5058368;28;20036;-65
2023/04/21 05:49:55;;;;;;;386.10;26.85;;;;;;;;;;5063410;28;20040;-65
2023/04/21 05:52:20;;;;;;;364.25;28.17;;;;;;;;;;5064235;28;20524;-65
2023/04/21 05:54:46;;;;;;;160.43;24.08;;;;;;;;;;5063098;28;20024;-65
2023/04/21 05:57:12;;;;;;;232.77;28.20;;;;;;;;;;5068993;28;20107;-66
2023/04/21 05:59:38;;;;;;;72.57;21.52;;;;;;;;;;5064381;28;20380;-66
2023/04/21 06:02:03;;;;;;;325.23;25.10;;;;;;;;;;5070738;28;20108;-65
2023/04/21 06:04:29;;;;;;;230.05;27.48;;;;;;;;;;5071412;28;20035;-66
2023/04/21 06:06:54;;;;;;;327.27;41.58;;;;;;;;;;5071549;28;20043;-66
2023/04/21 06:09:20;;;;;;;282.80;32.30;;;;;;;;;;5069285;28;20045;-65
2023/04/21 06:11:46;;;;;;;61.55;25.40;;;;;;;;;;5064972;28;20041;-66
2023/04/21 06:14:11;;;;;;;69.05;25.58;;;;;;;;;;5070149;28;20097;-66
2023/04/21 06:16:37;;;;;;;57.63;24.70;;;;;;;;;;5070433;28;20039;-66
2023/04/21 06:19:02;;;;;;;111.03;25.83;;;;;;;;;;5070887;28;20039;-66
2023/04/21 06:21:28;;;;;;;74.45;23.80;;;;;;;;;;5063058;28;20067;-66
2023/04/21 06:23:53;;;;;;;769.22;45.85;;;;;;;;;;5068934;28;20037;-66
2023/04/21 06:26:19;;;;;;;267.33;30.02;;;;;;;;;;5071998;28;20032;-66
2023/04/21 06:28:45;;;;;;;45.70;24.38;;;;;;;;;;5066912;28;20392;-67
2023/04/21 06:31:14;;;;;;;52.33;25.30;;;;;;;;;;5069542;28;20526;-66
2023/04/21 06:33:40;;;;;;;50.58;25.45;;;;;;;;;;5064494;28;20028;-66
2023/04/21 06:36:06;;;;;;;39.47;22.42;;;;;;;;;;5068403;28;20117;-66
2023/04/21 06:38:32;;;;;;;40.65;22.23;;;;;;;;;;5066384;28;20428;-67
2023/04/21 06:40:57;;;;;;;32.88;20.85;;;;;;;;;;5072129;28;20030;-67
2023/04/21 06:43:23;;;;;;;33.20;21.38;;;;;;;;;;5071881;28;20064;-67
2023/04/21 06:45:49;;;;;;;28.08;20.23;;;;;;;;;;5072978;28;20036;-66
2023/04/21 06:48:14;;;;;;;39.65;28.33;;;;;;;;;;5064583;28;20039;-66
2023/04/21 06:50:43;;;;;;;67.10;49.10;;;;;;;;;;5068683;28;20488;-65
2023/04/21 06:53:10;;;;;;;25.88;17.73;;;;;;;;;;5073222;28;20036;-66
2023/04/21 06:55:35;;;;;;;22.98;17.88;;;;;;;;;;5066800;28;20025;-66
2023/04/21 06:58:01;;;;;;;27.63;18.08;;;;;;;;;;5068185;28;20037;-67
2023/04/21 07:00:27;;;;;;;24.95;16.77;;;;;;;;;;5069933;28;20032;-67
2023/04/21 07:02:52;;;;;;;24.52;17.83;;;;;;;;;;5065400;28;20106;-66
2023/04/21 07:05:18;;;;;;;24.52;17.52;;;;;;;;;;5048625;28;20037;-66
2023/04/21 07:07:43;;;;;;;24.88;18.13;;;;;;;;;;5071435;28;20473;-66
2023/04/21 07:10:09;;;;;;;26.75;18.90;;;;;;;;;;5069697;28;20025;-66
2023/04/21 07:12:35;;;;;;;28.23;19.33;;;;;;;;;;5069146;28;20071;-66
2023/04/21 07:15:00;;;;;;;28.20;19.15;;;;;;;;;;5070051;28;20030;-67
2023/04/21 07:17:26;;;;;;;25.13;18.23;;;;;;;;;;5069531;28;20047;-66
2023/04/21 07:19:52;;;;;;;24.23;18.00;;;;;;;;;;5071733;28;20068;-66
2023/04/21 07:22:17;;;;;;;26.50;19.58;;;;;;;;;;5064081;28;20032;-66
2023/04/21 07:24:43;;;;;;;25.30;18.92;;;;;;;;;;5069712;28;20090;-66
2023/04/21 07:27:08;;;;;;;34.85;21.92;;;;;;;;;;5072325;28;20040;-66
2023/04/21 07:29:34;;;;;;;33.20;22.33;;;;;;;;;;5067339;28;20032;-66
2023/04/21 07:31:59;;;;;;;28.83;19.35;;;;;;;;;;5068602;28;20190;-66
2023/04/21 07:34:25;;;;;;;28.85;18.98;;;;;;;;;;5069391;28;20032;-66
2023/04/21 07:36:51;;;;;;;27.10;18.23;;;;;;;;;;5065066;28;20054;-66
2023/04/21 07:39:17;;;;;;;25.70;16.63;;;;;;;;;;5067106;28;20119;-67
2023/04/21 07:41:43;;;;;;;24.17;17.42;;;;;;;;;;5067205;28;20459;-66
2023/04/21 07:44:08;;;;;;;23.08;18.10;;;;;;;;;;5069270;28;20032;-67
2023/04/21 07:46:34;;;;;;;22.48;17.00;;;;;;;;;;5074181;28;20029;-66
2023/04/21 07:49:00;;;;;;;20.90;15.88;;;;;;;;;;5063158;28;20402;-67
2023/04/21 07:51:26;;;;;;;21.17;15.65;;;;;;;;;;5069341;28;20115;-66
2023/04/21 07:53:52;;;;;;;18.88;14.80;;;;;;;;;;5069923;28;20050;-66
2023/04/21 07:56:18;;;;;;;19.85;16.85;;;;;;;;;;5052579;28;20480;-66
2023/04/21 07:58:44;;;;;;;18.30;15.68;;;;;;;;;;5067754;28;20028;-66
2023/04/21 08:01:09;;;;;;;20.58;15.48;;;;;;;;;;5071918;28;20099;-67
2023/04/21 08:03:35;;;;;;;17.63;14.32;;;;;;;;;;5066814;28;20499;-66
2023/04/21 08:06:01;;;;;;;18.63;14.70;;;;;;;;;;5063778;28;20036;-67
2023/04/21 08:08:26;;;;;;;17.73;15.65;;;;;;;;;;5072487;28;20046;-67
2023/04/21 08:10:52;;;;;;;16.60;14.80;;;;;;;;;;5065986;28;20111;-67
2023/04/21 08:13:19;;;;;;;19.17;15.52;;;;;;;;;;5066838;28;20024;-67
2023/04/21 08:15:45;;;;;;;17.35;14.05;;;;;;;;;;5064466;28;20040;-66
2023/04/21 08:18:10;;;;;;;14.50;12.90;;;;;;;;;;5065683;28;20060;-67
2023/04/21 08:20:36;;;;;;;16.38;14.52;;;;;;;;;;5068387;28;20047;-67
2023/04/21 08:23:03;;;;;;;16.75;14.00;;;;;;;;;;5065813;28;20032;-66
2023/04/21 08:25:28;;;;;;;14.60;13.00;;;;;;;;;;5068093;28;20036;-67
2023/04/21 08:27:54;;;;;;;16.40;12.65;;;;;;;;;;5066257;28;20059;-67
2023/04/21 08:30:20;;;;;;;18.10;13.40;;;;;;;;;;5062518;28;20029;-67
2023/04/21 08:32:46;;;;;;;17.25;14.02;;;;;;;;;;5068349;28;20031;-66
2023/04/21 08:35:12;;;;;;;16.40;13.93;;;;;;;;;;5068452;28;20039;-66
2023/04/21 08:37:38;;;;;;;16.02;14.30;;;;;;;;;;5070827;28;20037;-66
2023/04/21 08:40:04;;;;;;;11.43;10.27;;;;;;;;;;5063772;28;20040;-66
2023/04/21 08:42:30;;;;;;;17.95;14.18;;;;;;;;;;5062978;28;20093;-67
2023/04/21 08:44:56;;;;;;;14.38;12.88;;;;;;;;;;5069993;28;20036;-66
2023/04/21 08:47:23;;;;;;;15.90;12.10;;;;;;;;;;5062152;28;20044;-67
2023/04/21 08:49:50;;;;;;;15.00;12.45;;;;;;;;;;5064369;28;20107;-67
2023/04/21 08:52:16;;;;;;;12.38;11.07;;;;;;;;;;5066963;28;20043;-67
2023/04/21 08:54:42;;;;;;;13.38;11.98;;;;;;;;;;5066476;28;20121;-67
2023/04/21 08:57:08;;;;;;;13.07;11.73;;;;;;;;;;5069745;28;20484;-67
2023/04/21 08:59:34;;;;;;;12.13;10.70;;;;;;;;;;5070748;28;20032;-67
2023/04/21 09:02:14;;;;;;;10.85;9.82;;;;;;;;;;5068085;28;20430;-66
2023/04/21 09:04:44;;;;;;;12.27;11.07;;;;;;;;;;5057200;28;20507;-67
2023/04/21 09:07:11;;;;;;;14.70;11.82;;;;;;;;;;5066943;28;20032;-67
2023/04/21 09:09:56;;;;;;;12.52;11.23;;;;;;;;;;5067820;28;20476;-67
2023/04/21 09:12:23;;;;;;;11.93;10.73;;;;;;;;;;5064713;28;20277;-67
2023/04/21 09:14:49;;;;;;;13.52;11.90;;;;;;;;;;5065134;28;20032;-67
2023/04/21 09:17:17;;;;;;;12.65;11.35;;;;;;;;;;5068065;28;20043;-67
2023/04/21 09:19:43;;;;;;;12.82;11.52;;;;;;;;;;5070996;28;20032;-67
2023/04/21 09:22:14;;;;;;;12.23;10.93;;;;;;;;;;5061628;28;20362;-67
2023/04/21 09:24:56;;;;;;;12.35;11.15;;;;;;;;;;5064486;28;20060;-67
2023/04/21 09:27:22;;;;;;;13.55;9.88;;;;;;;;;;5062113;28;20056;-67
2023/04/21 09:29:47;;;;;;;10.18;8.50;;;;;;;;;;5070324;28;20056;-67
2023/04/21 09:32:18;;;;;;;7.95;7.15;;;;;;;;;;5072491;28;20041;-67
2023/04/21 09:34:44;;;;;;;7.32;6.63;;;;;;;;;;5072588;28;20119;-67
2023/04/21 09:37:11;;;;;;;20.40;13.65;;;;;;;;;;5068445;28;20032;-67
2023/04/21 09:39:37;;;;;;;10.20;9.20;;;;;;;;;;5069921;28;20492;-67
2023/04/21 09:42:02;;;;;;;9.98;8.50;;;;;;;;;;5075376;28;20303;-67
2023/04/21 09:44:28;;;;;;;9.52;8.65;;;;;;;;;;5068278;28;20223;-67
2023/04/21 09:47:02;;;;;;;9.25;8.32;;;;;;;;;;5071957;28;20549;-67
2023/04/21 09:49:30;;;;;;;8.98;8.18;;;;;;;;;;5071467;28;20583;-66
2023/04/21 09:52:00;;;;;;;8.73;7.85;;;;;;;;;;5075455;28;20043;-67
2023/04/21 09:54:31;;;;;;;8.80;8.00;;;;;;;;;;5071601;28;20158;-67
2023/04/21 09:57:03;;;;;;;8.40;7.60;;;;;;;;;;5069700;28;20079;-67
2023/04/21 09:59:36;;;;;;;9.10;8.05;;;;;;;;;;5072969;28;20384;-67
2023/04/21 10:02:06;;;;;;;8.02;7.22;;;;;;;;;;5067372;28;20028;-67
2023/04/21 10:04:33;;;;;;;9.10;8.20;;;;;;;;;;5071290;28;20078;-67
2023/04/21 10:06:59;;;;;;;8.88;7.97;;;;;;;;;;5072274;28;20040;-67
2023/04/21 10:09:40;;;;;;;9.52;8.52;;;;;;;;;;5064302;28;20033;-67
2023/04/21 10:12:08;;;;;;;10.38;8.48;;;;;;;;;;5074640;28;20200;-67
2023/04/21 10:14:37;;;;;;;11.13;8.80;;;;;;;;;;5070910;28;20519;-67
2023/04/21 10:17:05;;;;;;;9.38;8.38;;;;;;;;;;5071320;28;20032;-67
2023/04/21 10:19:35;;;;;;;12.10;9.23;;;;;;;;;;5064983;28;20426;-67
2023/04/21 10:22:01;;;;;;;12.48;8.07;;;;;;;;;;5072475;28;20037;-67
2023/04/21 10:24:30;;;;;;;9.50;8.45;;;;;;;;;;5067816;28;20110;-67
2023/04/21 10:26:58;;;;;;;12.50;8.32;;;;;;;;;;5069472;28;20123;-67
2023/04/21 10:29:31;;;;;;;9.85;8.95;;;;;;;;;;5073080;28;20035;-67
2023/04/21 10:31:57;;;;;;;8.93;7.45;;;;;;;;;;5070820;28;20055;-67
2023/04/21 10:34:34;;;;;;;8.75;7.90;;;;;;;;;;5071305;28;20028;-67
2023/04/21 10:36:59;;;;;;;9.40;8.48;;;;;;;;;;5070728;28;20476;-66
2023/04/21 10:39:35;;;;;;;9.00;8.20;;;;;;;;;;5074456;28;20546;-68
2023/04/21 10:42:28;;;;;;;10.23;7.30;;;;;;;;;;5067109;28;20553;-67
2023/04/21 10:44:56;;;;;;;11.18;9.02;;;;;;;;;;5065487;28;20036;-67
2023/04/21 10:47:30;;;;;;;9.88;8.82;;;;;;;;;;5070491;28;20094;-67
2023/04/21 10:49:57;;;;;;;9.35;8.45;;;;;;;;;;5069818;28;20036;-67
2023/04/21 10:52:32;;;;;;;10.07;9.07;;;;;;;;;;5068452;28;20036;-67
2023/04/21 10:54:57;;;;;;;10.68;9.00;;;;;;;;;;5065922;28;20035;-67
2023/04/21 10:57:23;;;;;;;9.20;8.30;;;;;;;;;;5070934;28;20036;-67
2023/04/21 10:59:49;;;;;;;9.82;8.82;;;;;;;;;;5070474;28;20632;-68
2023/04/21 11:02:17;;;;;;;10.38;9.27;;;;;;;;;;5046330;28;20035;-67
2023/04/21 11:04:46;;;;;;;9.05;8.15;;;;;;;;;;5070019;28;20545;-67
2023/04/21 11:07:30;;;;;;;9.70;8.55;;;;;;;;;;5073036;28;20293;-67
2023/04/21 11:10:08;;;;;;;9.93;8.38;;;;;;;;;;5066329;28;20115;-67
2023/04/21 11:12:37;;;;;;;9.95;9.05;;;;;;;;;;5070759;28;20392;-69
2023/04/21 11:15:07;;;;;;;;;;;;;;;;;;5066972;28;20028;-67
2023/04/21 11:17:33;;;;;;;9.48;8.57;;;;;;;;;;5070006;28;19912;-67
2023/04/21 11:20:01;;;;;;;9.85;8.80;;;;;;;;;;5070623;28;20060;-67
2023/04/21 11:22:26;;;;;;;8.32;7.53;;;;;;;;;;5069813;28;20032;-67
2023/04/21 11:24:54;;;;;;;8.70;7.72;;;;;;;;;;5068239;28;20036;-67
2023/04/21 11:27:21;;;;;;;8.88;7.40;;;;;;;;;;5068078;28;20254;-66
2023/04/21 11:29:48;;;;;;;8.05;7.32;;;;;;;;;;5068858;28;20032;-67
2023/04/21 11:32:15;;;;;;;7.72;7.03;;;;;;;;;;5072470;28;20044;-67
2023/04/21 11:34:40;;;;;;;7.93;7.22;;;;;;;;;;5065994;28;20163;-67
2023/04/21 11:37:08;;;;;;;8.38;7.63;;;;;;;;;;5068111;28;20516;-67
2023/04/21 11:39:33;;;;;;;8.30;7.60;;;;;;;;;;5049546;28;20424;-67
2023/04/21 11:41:59;;;;;;;8.38;7.68;;;;;;;;;;5057867;28;20032;-67
2023/04/21 11:44:31;;;;;;;8.43;7.65;;;;;;;;;;5069018;28;20047;-67
2023/04/21 11:46:56;;;;;;;8.93;8.07;;;;;;;;;;5066845;28;20578;-67
2023/04/21 11:49:24;;;;;;;7.82;7.13;;;;;;;;;;5060545;28;20064;-67
2023/04/21 11:51:50;;;;;;;8.73;8.03;;;;;;;;;;5070591;28;20047;-67
2023/04/21 11:54:17;;;;;;;8.93;7.53;;;;;;;;;;5067410;28;20135;-67
2023/04/21 11:56:46;;;;;;;8.40;7.70;;;;;;;;;;5068038;28;20029;-67
2023/04/21 11:59:17;;;;;;;8.18;7.47;;;;;;;;;;5070528;28;20039;-67
2023/04/21 12:01:49;;;;;;;8.43;7.50;;;;;;;;;;5067538;28;20024;-67
2023/04/21 12:04:25;;;;;;;8.00;7.30;;;;;;;;;;5070539;28;20088;-66
2023/04/21 12:06:58;;;;;;;8.07;7.32;;;;;;;;;;5061792;28;20063;-65
2023/04/21 12:09:25;;;;;;;8.70;7.93;;;;;;;;;;5051422;28;20411;-67
2023/04/21 12:11:52;;;;;;;8.52;7.72;;;;;;;;;;5068783;28;20043;-67
2023/04/21 12:14:20;;;;;;;8.43;7.63;;;;;;;;;;5068323;28;20070;-68
2023/04/21 12:16:56;;;;;;;8.07;7.38;;;;;;;;;;5069665;28;20039;-68
2023/04/21 12:19:38;;;;;;;8.13;7.40;;;;;;;;;;5069830;28;20047;-68
2023/04/21 12:22:12;;;;;;;7.57;6.97;;;;;;;;;;5066785;28;20032;-67
2023/04/21 12:24:38;;;;;;;7.75;6.95;;;;;;;;;;5065550;28;20040;-67
2023/04/21 12:27:05;;;;;;;8.00;7.38;;;;;;;;;;5067906;28;20060;-67
2023/04/21 12:29:30;;;;;;;6.95;6.45;;;;;;;;;;5068199;28;20036;-67
2023/04/21 12:31:56;;;;;;;8.13;7.35;;;;;;;;;;5064656;28;20028;-67
2023/04/21 12:34:21;;;;;;;7.43;6.82;;;;;;;;;;5068247;28;20494;-67
2023/04/21 12:36:47;;;;;;;7.65;7.05;;;;;;;;;;5068810;28;20094;-67
2023/04/21 12:39:13;;;;;;;8.77;8.07;;;;;;;;;;5062738;28;20083;-67
2023/04/21 12:41:39;;;;;;;9.10;7.45;;;;;;;;;;5056702;28;20062;-67
2023/04/21 12:44:05;;;;;;;7.68;7.07;;;;;;;;;;5066268;28;20031;-66
2023/04/21 12:46:31;;;;;;;7.93;7.13;;;;;;;;;;5067079;28;20369;-68
2023/04/21 12:48:57;;;;;;;8.32;7.60;;;;;;;;;;5047614;28;20565;-67
2023/04/21 12:51:22;;;;;;;6.90;6.32;;;;;;;;;;5065222;28;20067;-68
2023/04/21 12:53:48;;;;;;;7.50;6.60;;;;;;;;;;5070438;28;20032;-67
2023/04/21 12:56:14;;;;;;;7.10;6.50;;;;;;;;;;5065492;28;20089;-68
2023/04/21 12:58:41;;;;;;;7.28;6.68;;;;;;;;;;5062223;28;20036;-67
2023/04/21 13:01:06;;;;;;;7.20;6.60;;;;;;;;;;5066167;28;20111;-67
2023/04/21 13:03:32;;;;;;;6.82;6.22;;;;;;;;;;5067237;28;20194;-67
2023/04/21 13:05:58;;;;;;;6.63;6.13;;;;;;;;;;5061989;28;20481;-67
2023/04/21 13:08:24;;;;;;;6.40;5.97;;;;;;;;;;5065124;28;20595;-67
2023/04/21 13:10:49;;;;;;;6.40;5.90;;;;;;;;;;5066327;28;20159;-67
2023/04/21 13:13:15;;;;;;;6.35;5.85;;;;;;;;;;5069425;28;20020;-67
2023/04/21 13:15:40;;;;;;;6.13;5.72;;;;;;;;;;5064054;28;20523;-67
2023/04/21 13:18:06;;;;;;;6.13;5.35;;;;;;;;;;5063642;28;20028;-68
2023/04/21 13:20:31;;;;;;;5.93;5.43;;;;;;;;;;5069437;28;20139;-67
2023/04/21 13:22:57;;;;;;;6.05;5.65;;;;;;;;;;5064171;28;20444;-67
2023/04/21 13:25:22;;;;;;;5.63;5.22;;;;;;;;;;5063854;28;20044;-68
2023/04/21 13:27:48;;;;;;;6.10;5.60;;;;;;;;;;5066338;28;20036;-67
2023/04/21 13:30:15;;;;;;;5.50;5.10;;;;;;;;;;5066861;28;20119;-67
2023/04/21 13:32:41;;;;;;;5.80;5.40;;;;;;;;;;5059865;28;20387;-67
2023/04/21 13:35:09;;;;;;;5.72;5.32;;;;;;;;;;5044751;28;20532;-67
2023/04/21 13:37:36;;;;;;;5.63;5.18;;;;;;;;;;5066822;28;20025;-67
2023/04/21 13:40:03;;;;;;;6.03;5.63;;;;;;;;;;5064395;28;20036;-68
2023/04/21 13:42:29;;;;;;;6.32;5.85;;;;;;;;;;5061046;28;20040;-67
2023/04/21 13:44:54;;;;;;;6.15;5.75;;;;;;;;;;5064955;28;20033;-67
2023/04/21 13:47:20;;;;;;;6.65;5.82;;;;;;;;;;5064560;28;20032;-67
2023/04/21 13:49:46;;;;;;;6.22;5.82;;;;;;;;;;5066939;28;20147;-67
2023/04/21 13:52:11;;;;;;;6.20;5.70;;;;;;;;;;5047400;28;20043;-67
2023/04/21 13:54:37;;;;;;;5.80;5.40;;;;;;;;;;5064474;28;20078;-68
2023/04/21 13:57:03;;;;;;;5.82;5.43;;;;;;;;;;5067999;28;20028;-67
2023/04/21 13:59:29;;;;;;;6.10;5.70;;;;;;;;;;5069075;28;20479;-67
2023/04/21 14:01:54;;;;;;;6.15;5.45;;;;;;;;;;5062138;28;20043;-67
2023/04/21 14:04:20;;;;;;;5.68;5.30;;;;;;;;;;5066117;28;20043;-67
2023/04/21 14:06:47;;;;;;;6.55;6.03;;;;;;;;;;5065882;28;20036;-67
2023/04/21 14:09:12;;;;;;;5.78;5.28;;;;;;;;;;5059691;28;20151;-67
2023/04/21 14:11:38;;;;;;;5.47;5.07;;;;;;;;;;5046963;28;20354;-67
2023/04/21 14:14:04;;;;;;;5.82;5.32;;;;;;;;;;5054678;28;20052;-67
2023/04/21 14:16:29;;;;;;;5.53;5.13;;;;;;;;;;5062412;28;20043;-67
2023/04/21 14:18:55;;;;;;;5.75;5.25;;;;;;;;;;5060629;28;20514;-67
2023/04/21 14:21:20;;;;;;;6.20;5.60;;;;;;;;;;5064349;28;20036;-67